x

Santa Monica Basin - 33nm Wsw Of Santa Monica, Ca (46025) Wave Buoy

2:50 - Thu 24th Jul 2014 All times are PDT. -7 hours from GMT.

  • Sig Wave height 2.6ft
  • Swell Direction
  • Peak Period 6s
  • Average Period 5s
  • Wind
    7mph, 9mph gusts
  • Sea Temp 69°f
  • Ar Temp 69°f
  • Sea Pressure 1009.3mb
  • Santa Monica Basin - 33nm Wsw Of Santa Monica, Ca
  • Santa Monica Basin - 33nm Wsw Of Santa Monica, Ca

More Historic Weather Station data

Upgrade to MSW Pro to gain access to the past 30 days of data for over 8000 Wavebouys and Weather Stations around the globe.

Join Pro

Comparision Forecast

View Surf forecast
   
Qui 07/24 2:50 2.5ft 6s 5s 7 9 mph 1009.3mb 69f 69f
1:50 2.5ft 7s 5s 7 9 mph 1009.7mb 69f 68f
12:50 2.5ft 17s 5s 2 4 mph 1010.2mb 70f 68f
11:50 2.5ft 8s 5s 7
mph
1010.3mb 69f 68f
10:50 3ft 6s 5s 7
mph
1010.7mb 69f 68f
9:50 2.5ft 7s 5s 4
mph
1010.9mb 68f 67f
8:50 3ft 5s 5s 4
mph
1011.1mb 68f 67f
7:50 3.5ft 6s 5s 4 7 mph 1011.2mb 68f 67f
6:50 3.5ft 5s 5s 7 9 mph 1011.1mb 68f 67f
5:50 3.5ft 6s 5s 7
mph
1010.6mb 68f 68f
4:50 4ft 5s 5s 7
mph
1010.4mb 68f 67f
3:50 4ft 7s 5s 13 16 mph 1010.3mb 68f 68f
2:50 4ft 6s 5s 7 11 mph 1010.9mb 68f 68f
1:50 4.5ft 6s 5s 7
mph
1011.4mb 68f 68f
12:50 4.5ft 7s 5s 2
mph
1011.9mb 69f 68f
Qua 07/23 11:50 4.5ft 7s 5s 7
mph
1012mb 69f 68f
10:50 4.5ft 6s 5s 9 11 mph 1011.8mb 69f 69f
9:50 4.5ft 6s 5s 11 13 mph 1011.5mb 69f 69f
8:50 5ft 6s 5s 11 16 mph 1011.2mb 69f 69f
7:50 5ft 6s 5s 16 18 mph 1011.3mb 70f 69f
6:50 5ft 6s 5s 16 18 mph 1011.5mb 70f 70f
5:50 4.5ft 6s 5s 16 18 mph 1011.9mb 70f 70f
4:50 3.5ft 6s 5s 16 18 mph 1012.4mb 71f 70f
3:50 3.5ft 6s 5s 11 16 mph 1012.9mb 70f 71f
2:50 3.5ft 6s 5s 13 16 mph 1013.8mb 70f 70f
1:50 3.5ft 6s 5s 11 13 mph 1014.4mb 70f 71f
12:50 3ft 6s 5s 9 11 mph 1015.3mb 71f 70f
11:50 3ft 5s 5s 4
mph
1015.8mb 71f 69f
10:50 3ft 6s 5s 4
mph
1016.1mb 71f 69f
9:50 3ft 6s 5s  -  2 mph 1016mb 70f 69f
8:50 3ft 5s 5s 4 7 mph 1016.1mb 69f 69f
7:50 3.5ft 6s 5s 2 4 mph 1015.9mb 69f 69f
6:50 3.5ft 6s 5s 7
mph
1015.5mb 69f 69f
5:50 4ft 6s 5s 13 16 mph 1015mb 70f 69f
4:50 4ft 6s 5s 7 11 mph 1015.1mb 70f 69f
3:50 4ft 6s 5s 4
mph
1015.1mb 70f 69f
2:50 4ft 6s 5s 9 11 mph 1015.4mb 70f 68f
1:50 4.5ft 6s 5s 7 9 mph 1015.4mb 70f 69f
12:50 4.5ft 6s 5s 11 13 mph 1015.6mb 70f 69f
Ter 07/22 11:50 4.5ft 6s 5s 11 13 mph 1015.8mb 71f 69f
10:50 4.5ft 6s 5s 13 16 mph 1015.8mb 70f 69f
9:50 4.5ft 6s 5s 11 13 mph 1015.8mb 70f 69f
8:50 4.5ft 6s 4s 16 18 mph 1015.3mb 70f 69f
7:50 4.5ft 6s 4s 20 25 mph 1015.2mb 70f 70f
6:50 4ft 5s 4s 22 27 mph 1015mb 70f 70f
5:50 2.5ft 4s 4s 18 22 mph 1015.6mb 71f 71f
4:50 2.5ft 5s 4s 11 13 mph 1016.2mb 71f 71f
3:50 2.5ft 4s 4s 9
mph
1016.6mb 71f 71f
2:50 2.5ft 5s 4s 9 11 mph 1017.3mb 71f 70f
1:50 2.5ft 4s 4s 9
mph
1017.5mb 71f 69f
12:50 2.5ft 5s 4s 4 7 mph 1018mb 71f 68f
11:50 2.5ft 4s 4s 9
mph
1017.9mb 70f 68f
10:50 2.5ft 5s 4s 9 11 mph 1018mb 70f 68f
9:50 2.5ft 12s 5s 7 9 mph 1017.7mb 70f 68f
8:50 2.5ft 5s 4s 11 13 mph 1017.4mb 70f 67f
7:50 2.5ft 5s 5s 9 11 mph 1017.1mb 70f 67f
6:50 2.5ft 5s 4s 11 13 mph 1016.6mb 70f 67f
5:50 2.5ft 5s 4s 4 7 mph 1016.4mb 70f 67f
4:50 2.5ft 5s 4s 7 9 mph 1016.3mb 70f 67f
3:50 2.5ft 4s 4s 7
mph
1016.5mb 70f 68f
2:50 3ft 5s 4s 7 11 mph 1016.5mb 70f 68f
1:50 3ft 4s 4s 13 16 mph 1016.2mb 70f 67f
12:50 3ft 4s 4s 18 20 mph 1016.1mb 70f 67f
Seg 07/21 11:50 3ft 4s 4s 16 18 mph 1016.1mb 70f 68f
10:50 3ft 4s 4s 9 11 mph 1016.1mb 70f 68f
9:50 3ft 12s 4s 13 16 mph 1015.7mb 70f 69f
8:50 3ft 4s 4s 18 20 mph 1015mb 70f 68f
6:50 2.5ft 4s 4s 16 20 mph 1015.5mb 70f 69f
5:50 2.5ft 12s 4s 18 20 mph 1015.8mb 71f 69f
4:50 1.6ft 12s 4s 16 18 mph 1016.3mb 71f 69f
2:50 1.6ft 13s 5s 13 16 mph 1017.4mb 71f 69f
1:50 1.6ft 13s 6s 11 13 mph 1017.6mb 71f 68f
12:50 1.6ft 13s 6s 11 13 mph 1017.7mb 71f 68f
11:50 1.3ft 12s 6s 7 9 mph 1018.3mb 71f 68f
10:50 1.6ft 13s 6s 7 9 mph 1018.1mb 70f 67f
9:50 1.6ft 12s 6s 7 9 mph 1017.9mb 70f 67f
8:50 1.6ft 14s 6s 9
mph
1017.7mb 70f 68f
7:50 1.6ft 12s 6s 9
mph
1017.2mb 70f 68f
6:50 1.6ft 12s 5s 2 4 mph 1016.4mb 70f 68f
4:50 2ft 13s 5s 7 9 mph 1015.6mb 70f 67f
3:50 2ft 14s 4s 11 13 mph 1015.5mb 70f 67f
2:50 2.5ft 14s 5s 7 11 mph 1015.6mb 70f 68f
1:50 2.5ft 13s 4s 9 11 mph 1015.5mb 70f 68f
12:50 2.5ft 4s 4s 9 11 mph 1015.7mb 70f 68f
Dom 07/20 11:50 2.5ft 13s 4s 11 13 mph 1015.7mb 70f 68f